»·PEaware :: N412HB KBFL-KCMA

N412HB :: KBFL-KCMA

FLIGHT INFORMATION

Flight Status: Arrived
Operator: Privately registered:
United States
More flights under this callsign
Pilot: Timothy L. (20714)
Aircraft: PILATUS PC-12 EAGLE
(PC12)
More flights by this aircraft type
Origin: KBFL Meadows
United States
Destination: KCMA Camarillo
United States
More flights between these airports :: More routes between these airports
Route: +MARIC4 GMN V299 FIM
File this flight plan on PilotEdge
Remarks:
Altitude:
(Current/Filed)
10,000ft
Speed:
(Current/Filed)
250kts
Departed: 08-Feb-20 08:27 PM
Arrived: 08-Feb-20 08:58 PM
Distance/Time
Traveled:
73nm/0:30
Distance/Time
To Go:
Arrived

Flight Plot

Page will automatically refresh every two minutes.

Flight plan parsing failed; only flown route is shown


Map Options




Map Legend


Flown Route
Filed Route
Departure Airport
Arrival Airport
Navaid (VOR, NDB)
Fix

Horizontal Profiles

Position Reports

Time Latitude Longitude Heading Altitude Ground
Speed
08-Feb-20 19:56 35.435716 -119.052044 179 504ft 0kts
08-Feb-20 19:57 35.435716 -119.052044 179 504ft 0kts
08-Feb-20 19:58 35.435716 -119.052044 179 504ft 0kts
08-Feb-20 19:59 35.435716 -119.052044 179 504ft 0kts
08-Feb-20 20:00 35.435716 -119.052044 179 504ft 0kts
08-Feb-20 20:01 35.435716 -119.052044 179 504ft 0kts
08-Feb-20 20:02 35.435716 -119.052044 179 504ft 0kts
08-Feb-20 20:03 35.435716 -119.052044 179 504ft 0kts
08-Feb-20 20:04 35.435716 -119.052044 179 504ft 0kts
08-Feb-20 20:05 35.435716 -119.052044 179 504ft 0kts
08-Feb-20 20:06 35.435716 -119.052044 179 504ft 0kts
08-Feb-20 20:07 35.435716 -119.052044 179 504ft 0kts
08-Feb-20 20:08 35.435716 -119.052044 179 504ft 0kts
08-Feb-20 20:09 35.435716 -119.052044 179 504ft 0kts
08-Feb-20 20:10 35.435716 -119.052044 179 504ft 0kts
08-Feb-20 20:11 35.435716 -119.052044 179 504ft 0kts
08-Feb-20 20:12 35.435716 -119.052044 179 504ft 0kts
08-Feb-20 20:13 35.435716 -119.052044 179 504ft 0kts
08-Feb-20 20:14 35.435716 -119.052044 179 504ft 0kts
08-Feb-20 20:15 35.435716 -119.052044 179 504ft 0kts
08-Feb-20 20:16 35.435716 -119.052044 179 504ft 0kts
08-Feb-20 20:17 35.435716 -119.052044 179 504ft 0kts
08-Feb-20 20:19 35.435716 -119.052044 179 504ft 0kts
08-Feb-20 20:20 35.435398 -119.053261 239 500ft 16kts
08-Feb-20 20:21 35.433716 -119.053833 133 492ft 23kts
08-Feb-20 20:22 35.429643 -119.048906 134 490ft 17kts
08-Feb-20 20:23 35.425843 -119.044626 204 480ft 15kts
08-Feb-20 20:24 35.425646 -119.044807 223 479ft 0kts
08-Feb-20 20:25 35.425646 -119.044807 223 479ft 0kts
08-Feb-20 20:26 35.425646 -119.044807 223 479ft 0kts
08-Feb-20 20:27 35.426305 -119.047074 313 477ft 50kts
08-Feb-20 20:28 35.445717 -119.073436 276 1779ft 111kts
08-Feb-20 20:29 35.437163 -119.113938 250 3017ft 172kts
08-Feb-20 20:30 35.394100 -119.136405 160 3007ft 226kts
08-Feb-20 20:31 35.340624 -119.109439 160 4590ft 191kts
08-Feb-20 20:32 35.293028 -119.086781 163 6375ft 179kts
08-Feb-20 20:33 35.246824 -119.065312 164 8163ft 179kts
08-Feb-20 20:34 35.200331 -119.043774 164 9910ft 184kts
08-Feb-20 20:35 35.142167 -119.017486 163 10006ft 250kts
08-Feb-20 20:36 35.074209 -118.986328 162 10002ft 267kts
08-Feb-20 20:37 35.004138 -118.954102 162 10003ft 271kts
08-Feb-20 20:38 34.933035 -118.921457 161 10003ft 274kts
08-Feb-20 20:38 34.873428 -118.894126 161 10000ft 276kts
08-Feb-20 20:39 34.800497 -118.863804 176 9997ft 274kts
08-Feb-20 20:41 34.712653 -118.866500 186 10000ft 271kts
08-Feb-20 20:41 34.649868 -118.869468 185 10000ft 272kts
08-Feb-20 20:42 34.574481 -118.872640 185 10000ft 272kts
08-Feb-20 20:44 34.487475 -118.876625 184 9271ft 267kts
08-Feb-20 20:44 34.426053 -118.879294 183 8196ft 266kts
08-Feb-20 20:45 34.357974 -118.873786 139 8000ft 228kts
08-Feb-20 20:47 34.303811 -118.846061 209 7345ft 199kts
08-Feb-20 20:47 34.264617 -118.832855 106 6804ft 192kts
08-Feb-20 20:48 34.264421 -118.773981 82 6105ft 163kts
08-Feb-20 20:49 34.259551 -118.722283 145 5145ft 171kts
08-Feb-20 20:50 34.230418 -118.754530 253 4107ft 171kts
08-Feb-20 20:51 34.211578 -118.802645 265 4000ft 156kts
08-Feb-20 20:52 34.211862 -118.856316 274 3810ft 172kts
08-Feb-20 20:53 34.212186 -118.917997 272 2823ft 188kts
08-Feb-20 20:54 34.212797 -118.981274 271 1795ft 191kts
08-Feb-20 20:55 34.212654 -119.029918 265 916ft 108kts
08-Feb-20 20:56 34.213275 -119.062708 269 494ft 103kts
08-Feb-20 20:57 34.213803 -119.092635 265 67ft 25kts
08-Feb-20 20:58 34.212645 -119.095704 194 65ft 6kts
08-Feb-20 20:59 34.210742 -119.093566 102 65ft 8kts
08-Feb-20 21:00 34.210763 -119.092251 346 66ft 0kts

Navigation Log

Ident Type
Flight plan parsing failed, navigation log unavailable